createdAt,value
2023-12-09T00:02:05.637Z,20.00
2023-12-09T00:04:33.025Z,15.25
2023-12-09T00:07:00.083Z,13.50
2023-12-09T00:09:27.088Z,10.25
2023-12-09T00:11:54.234Z,15.00
2023-12-09T00:14:21.692Z,10.25
2023-12-09T00:16:48.991Z,14.25
2023-12-09T00:19:16.432Z,14.00
2023-12-09T00:21:43.519Z,13.75
2023-12-09T00:24:10.516Z,13.25
2023-12-09T00:26:37.812Z,14.00
2023-12-09T00:29:04.905Z,13.25
2023-12-09T00:31:31.935Z,15.25
2023-12-09T00:33:59.108Z,12.75
2023-12-09T00:36:26.301Z,14.00
2023-12-09T00:38:53.465Z,15.00
2023-12-09T00:41:20.562Z,15.25
2023-12-09T00:43:47.636Z,12.00
2023-12-09T00:46:14.786Z,15.50
2023-12-09T00:48:42.006Z,10.00
2023-12-09T00:51:09.262Z,15.00
2023-12-09T00:53:36.274Z,15.00
2023-12-09T00:56:03.354Z,19.50
2023-12-09T00:58:30.541Z,13.50
2023-12-09T01:00:57.589Z,17.75
2023-12-09T01:03:24.842Z,15.25
2023-12-09T01:05:52.021Z,12.50
2023-12-09T01:08:19.077Z,14.50
2023-12-09T01:10:46.171Z,14.75
2023-12-09T01:13:13.216Z,11.00
2023-12-09T01:15:40.759Z,10.25
2023-12-09T01:18:07.933Z,10.75
2023-12-09T01:20:35.042Z,9.50
2023-12-09T01:23:02.006Z,16.00
2023-12-09T01:25:29.182Z,21.00
2023-12-09T01:27:56.172Z,19.50
2023-12-09T01:30:23.312Z,17.50
2023-12-09T01:32:51.214Z,20.00
2023-12-09T01:35:18.449Z,27.00
2023-12-09T01:37:45.515Z,23.25
2023-12-09T01:40:16.260Z,23.50
2023-12-09T01:42:43.729Z,16.75
2023-12-09T01:45:11.576Z,18.50
2023-12-09T01:47:40.950Z,24.25
2023-12-09T01:50:08.969Z,22.00
2023-12-09T01:52:37.420Z,20.00
2023-12-09T01:55:04.729Z,24.75
2023-12-09T01:57:32.124Z,22.00
2023-12-09T01:59:59.387Z,22.50
2023-12-09T02:02:26.793Z,25.50
2023-12-09T02:04:55.376Z,17.75
2023-12-09T02:07:22.656Z,14.00
2023-12-09T02:09:50.098Z,24.75
2023-12-09T02:12:27.168Z,16.00
2023-12-09T02:15:00.690Z,13.00
2023-12-09T02:17:35.558Z,13.25
2023-12-09T02:20:04.576Z,11.00
2023-12-09T02:22:31.790Z,10.00
2023-12-09T02:24:58.813Z,9.00
2023-12-09T02:27:39.775Z,9.50
2023-12-09T02:30:20.647Z,13.75
2023-12-09T02:32:50.258Z,13.00
2023-12-09T02:35:20.466Z,13.00
2023-12-09T02:37:48.438Z,9.25
2023-12-09T02:40:18.582Z,12.25
2023-12-09T02:42:46.240Z,10.25
2023-12-09T02:45:13.658Z,11.50
2023-12-09T02:47:40.808Z,11.00
2023-12-09T02:50:08.032Z,11.00
2023-12-09T02:52:35.180Z,10.50
2023-12-09T02:55:02.234Z,9.00
2023-12-09T02:57:29.365Z,11.50
2023-12-09T02:59:56.469Z,14.00
2023-12-09T03:02:23.452Z,14.00
2023-12-09T03:04:50.584Z,11.00
2023-12-09T03:07:21.560Z,11.50
2023-12-09T03:09:48.675Z,9.50
2023-12-09T03:12:15.783Z,9.50
2023-12-09T03:14:43.074Z,11.75
2023-12-09T03:17:13.154Z,9.50
2023-12-09T03:19:40.246Z,12.50
2023-12-09T03:22:07.325Z,12.25
2023-12-09T03:24:34.393Z,11.75
2023-12-09T03:27:01.491Z,10.75
2023-12-09T03:29:28.509Z,13.25
2023-12-09T03:31:55.431Z,10.00
2023-12-09T03:34:22.735Z,17.25
2023-12-09T03:36:49.883Z,10.50
2023-12-09T03:39:17.041Z,9.50
2023-12-09T03:41:44.036Z,11.00
2023-12-09T03:44:10.983Z,10.50
2023-12-09T03:46:37.979Z,12.75
2023-12-09T03:49:05.102Z,16.75
2023-12-09T03:51:32.215Z,18.00
2023-12-09T03:53:59.310Z,21.25
2023-12-09T03:56:26.921Z,25.50
2023-12-09T03:58:54.526Z,19.50
2023-12-09T04:01:23.975Z,16.50
2023-12-09T04:03:51.770Z,13.75
2023-12-09T04:06:19.025Z,17.00
2023-12-09T04:08:46.376Z,11.75
2023-12-09T04:11:13.417Z,15.25
2023-12-09T04:13:41.900Z,10.25
2023-12-09T04:16:09.229Z,10.75
2023-12-09T04:18:37.512Z,8.75
2023-12-09T04:21:06.193Z,14.75
2023-12-09T04:23:33.214Z,11.00
2023-12-09T04:26:00.459Z,12.50
2023-12-09T04:28:27.599Z,9.50
2023-12-09T04:30:54.669Z,11.00
2023-12-09T04:33:21.652Z,9.00
2023-12-09T04:35:48.836Z,9.00
2023-12-09T04:38:16.204Z,8.50
2023-12-09T04:40:43.763Z,8.25
2023-12-09T04:43:10.916Z,7.50
2023-12-09T04:45:37.882Z,1.00
2023-12-09T04:48:05.227Z,9.00
2023-12-09T04:50:32.309Z,9.25
2023-12-09T04:52:59.327Z,6.50
2023-12-09T04:55:27.090Z,8.25
2023-12-09T04:57:54.036Z,8.25
2023-12-09T05:00:21.258Z,9.00
2023-12-09T05:02:48.426Z,9.75
2023-12-09T05:05:15.536Z,7.50
2023-12-09T05:07:42.540Z,8.50
2023-12-09T05:10:09.862Z,9.25
2023-12-09T05:12:36.851Z,10.00
2023-12-09T05:15:04.897Z,6.25
2023-12-09T05:17:32.090Z,9.50
2023-12-09T05:19:59.336Z,10.00
2023-12-09T05:22:26.468Z,10.25
2023-12-09T05:24:53.714Z,15.00
2023-12-09T05:27:20.670Z,13.50
2023-12-09T05:29:47.698Z,13.25
2023-12-09T05:32:14.776Z,10.25
2023-12-09T05:34:41.936Z,11.50
2023-12-09T05:37:09.028Z,9.75
2023-12-09T05:39:36.816Z,12.50
2023-12-09T05:42:05.909Z,8.50
2023-12-09T05:44:33.467Z,12.00
2023-12-09T05:49:04.236Z,13.50
2023-12-09T05:51:31.751Z,14.75
2023-12-09T05:53:58.717Z,35.00
2023-12-09T05:56:26.103Z,17.00
2023-12-09T05:58:53.195Z,21.75
2023-12-09T06:01:20.234Z,15.75
2023-12-09T06:03:47.257Z,18.00
2023-12-09T06:06:14.356Z,14.25
2023-12-09T06:08:41.544Z,19.00
2023-12-09T06:11:08.490Z,12.50
2023-12-09T06:13:35.547Z,13.75
2023-12-09T06:16:02.661Z,16.50
2023-12-09T06:18:29.917Z,16.25
2023-12-09T06:20:57.280Z,15.00
2023-12-09T06:23:24.408Z,13.00
2023-12-09T06:25:51.554Z,12.50
2023-12-09T06:28:18.608Z,14.75
2023-12-09T06:30:45.810Z,18.25
2023-12-09T06:33:12.899Z,15.00
2023-12-09T06:35:40.090Z,19.25
2023-12-09T06:38:07.160Z,13.75
2023-12-09T06:40:34.261Z,19.75
2023-12-09T06:43:01.277Z,15.00
2023-12-09T06:45:28.258Z,15.25
2023-12-09T06:47:56.410Z,19.75
2023-12-09T06:50:23.618Z,16.00
2023-12-09T06:52:50.730Z,12.50
2023-12-09T06:55:17.824Z,9.00
2023-12-09T06:57:45.014Z,13.00
2023-12-09T07:00:14.020Z,10.00
2023-12-09T07:02:49.268Z,0.00
2023-12-09T07:05:24.380Z,20.00
2023-12-09T07:07:52.420Z,19.00
2023-12-09T07:10:19.633Z,23.25
2023-12-09T07:12:46.636Z,22.50
2023-12-09T07:15:14.056Z,36.25
2023-12-09T07:17:41.165Z,23.75
2023-12-09T07:20:08.854Z,31.50
2023-12-09T07:22:35.972Z,30.25
2023-12-09T07:25:03.117Z,22.00
2023-12-09T07:27:30.266Z,19.75
2023-12-09T07:29:57.455Z,23.25
2023-12-09T07:32:24.804Z,20.50
2023-12-09T07:34:56.253Z,19.25
2023-12-09T07:37:24.944Z,28.50
2023-12-09T07:39:52.571Z,20.75
2023-12-09T07:42:20.147Z,21.50
2023-12-09T07:44:47.336Z,18.75
2023-12-09T07:47:14.406Z,22.50
2023-12-09T07:49:43.518Z,18.75
2023-12-09T07:52:11.316Z,22.50
2023-12-09T07:54:38.424Z,22.50
2023-12-09T07:57:05.721Z,21.50
2023-12-09T07:59:33.068Z,27.75
2023-12-09T08:02:00.098Z,22.00
2023-12-09T08:04:27.181Z,18.75
2023-12-09T08:06:55.407Z,20.75
2023-12-09T08:09:22.692Z,18.25
2023-12-09T08:11:52.963Z,23.75
2023-12-09T08:14:20.834Z,21.75
2023-12-09T08:16:47.948Z,21.25
2023-12-09T08:19:14.992Z,17.50
2023-12-09T08:21:42.124Z,23.50
2023-12-09T08:24:09.373Z,23.00
2023-12-09T08:26:38.569Z,24.50
2023-12-09T08:29:05.962Z,20.00
2023-12-09T08:31:33.663Z,20.50
2023-12-09T08:34:00.859Z,19.25
2023-12-09T08:36:28.067Z,23.75
2023-12-09T08:38:55.164Z,18.50
2023-12-09T08:41:22.194Z,27.25
2023-12-09T08:43:53.877Z,28.00
2023-12-09T08:46:20.919Z,21.50
2023-12-09T08:48:48.424Z,27.75
2023-12-09T08:51:15.585Z,27.00
2023-12-09T08:53:42.589Z,20.75
2023-12-09T08:56:09.594Z,26.75
2023-12-09T08:58:36.685Z,32.50
2023-12-09T09:01:03.759Z,29.50
2023-12-09T09:03:31.785Z,34.75
2023-12-09T09:05:59.394Z,29.50
2023-12-09T09:08:26.463Z,32.00
2023-12-09T09:10:54.037Z,28.75
2023-12-09T09:13:21.115Z,28.00
2023-12-09T09:15:48.209Z,30.50
2023-12-09T09:18:15.351Z,28.75
2023-12-09T09:20:44.219Z,32.00
2023-12-09T09:23:12.049Z,28.75
2023-12-09T09:25:39.099Z,31.50
2023-12-09T09:28:06.521Z,25.50
2023-12-09T09:30:33.723Z,18.50
2023-12-09T09:33:01.468Z,25.50
2023-12-09T09:35:28.596Z,32.00
2023-12-09T09:37:55.575Z,29.50
2023-12-09T09:40:22.747Z,28.50
2023-12-09T09:43:06.383Z,32.00
2023-12-09T09:45:33.795Z,32.00
2023-12-09T09:48:06.830Z,30.00
2023-12-09T09:50:41.398Z,25.50
2023-12-09T09:53:10.212Z,24.50
2023-12-09T09:55:40.707Z,29.50
2023-12-09T09:58:08.437Z,23.00
2023-12-09T10:00:35.680Z,27.00
2023-12-09T10:03:04.492Z,25.00
2023-12-09T10:05:31.830Z,25.50
2023-12-09T10:07:59.153Z,33.50
2023-12-09T10:10:28.422Z,28.00
2023-12-09T10:12:55.472Z,26.75
2023-12-09T10:15:22.658Z,29.75
2023-12-09T10:17:50.175Z,26.75
2023-12-09T10:20:17.696Z,32.50
2023-12-09T10:22:48.073Z,28.50
2023-12-09T10:25:25.260Z,31.25
2023-12-09T10:27:53.020Z,32.75
2023-12-09T10:30:20.281Z,27.50
2023-12-09T10:32:50.818Z,31.50
2023-12-09T10:35:18.529Z,31.00
2023-12-09T10:37:45.675Z,22.75
2023-12-09T10:40:14.596Z,31.25
2023-12-09T10:42:41.875Z,27.50
2023-12-09T10:45:09.615Z,32.75
2023-12-09T10:47:37.021Z,27.00
2023-12-09T10:50:05.369Z,29.75
2023-12-09T10:52:34.217Z,27.50
2023-12-09T10:55:03.033Z,31.00
2023-12-09T10:57:33.971Z,26.25
2023-12-09T11:00:02.579Z,24.00
2023-12-09T11:02:31.194Z,32.00
2023-12-09T11:04:58.943Z,22.25
2023-12-09T11:07:27.162Z,32.50
2023-12-09T11:09:54.544Z,31.75
2023-12-09T11:12:29.184Z,31.75
2023-12-09T11:14:56.994Z,34.50
2023-12-09T11:17:39.048Z,32.75
2023-12-09T11:20:16.543Z,34.75
2023-12-09T11:22:45.497Z,37.75
2023-12-09T11:25:26.620Z,35.50
2023-12-09T11:27:54.738Z,37.50
2023-12-09T11:30:36.001Z,9.25
2023-12-09T11:33:05.746Z,31.50
2023-12-09T11:35:34.783Z,31.75
2023-12-09T11:38:03.616Z,34.25
2023-12-09T11:40:32.389Z,36.25
2023-12-09T11:43:01.407Z,36.00
2023-12-09T11:45:28.695Z,35.75
2023-12-09T11:47:58.247Z,30.50
2023-12-09T11:50:28.621Z,31.50
2023-12-09T11:52:55.816Z,32.25
2023-12-09T11:55:23.046Z,42.25
2023-12-09T11:57:50.098Z,43.00
2023-12-09T12:00:17.643Z,38.00
2023-12-09T12:02:44.809Z,36.25
2023-12-09T12:05:13.049Z,37.00
2023-12-09T12:07:40.660Z,41.00
2023-12-09T12:10:09.297Z,39.00
2023-12-09T12:12:37.678Z,34.25
2023-12-09T12:15:06.321Z,35.00
2023-12-09T12:17:41.910Z,29.00
2023-12-09T12:20:11.852Z,36.75
2023-12-09T12:22:41.740Z,71.25
2023-12-09T12:25:09.925Z,35.50
2023-12-09T12:27:40.288Z,31.00
2023-12-09T12:30:09.489Z,37.75
2023-12-09T12:32:39.303Z,30.50
2023-12-09T12:35:07.204Z,36.50
2023-12-09T12:37:34.658Z,35.25
2023-12-09T12:40:01.794Z,31.50
2023-12-09T12:42:29.385Z,38.25
2023-12-09T12:44:56.923Z,39.00
2023-12-09T12:47:24.344Z,40.00
2023-12-09T12:49:51.617Z,41.75
2023-12-09T12:52:18.795Z,39.50
2023-12-09T12:54:45.902Z,38.50
2023-12-09T12:57:13.058Z,44.00
2023-12-09T12:59:40.205Z,39.75
2023-12-09T13:02:07.330Z,41.75
2023-12-09T13:04:34.761Z,38.50
2023-12-09T13:07:01.814Z,38.75
2023-12-09T13:09:29.374Z,38.75
2023-12-09T13:11:56.677Z,37.75
2023-12-09T13:14:23.869Z,38.75
2023-12-09T13:16:51.457Z,39.75
2023-12-09T13:19:19.569Z,42.25
2023-12-09T13:21:46.785Z,40.00
2023-12-09T13:24:14.036Z,37.50
2023-12-09T13:26:41.221Z,41.50
2023-12-09T13:29:08.498Z,39.75
2023-12-09T13:31:36.356Z,42.75
2023-12-09T13:34:06.447Z,40.75
2023-12-09T13:36:35.516Z,40.50
2023-12-09T13:39:05.272Z,40.75
2023-12-09T13:41:33.053Z,40.50
2023-12-09T13:44:02.268Z,43.50
2023-12-09T13:46:29.522Z,43.75
2023-12-09T13:48:57.118Z,44.50
2023-12-09T13:51:24.438Z,44.25
2023-12-09T13:53:51.662Z,45.50
2023-12-09T13:56:18.827Z,42.75
2023-12-09T13:58:45.806Z,42.50
2023-12-09T14:01:13.143Z,47.75
2023-12-09T14:03:41.040Z,42.25
2023-12-09T14:06:08.610Z,42.25
2023-12-09T14:08:35.753Z,49.25
2023-12-09T14:11:03.058Z,46.25
2023-12-09T14:13:30.501Z,41.75
2023-12-09T14:15:57.578Z,46.00
2023-12-09T14:18:24.895Z,41.50
2023-12-09T14:20:52.155Z,39.75
2023-12-09T14:23:19.332Z,36.50
2023-12-09T14:25:46.645Z,35.75
2023-12-09T14:28:16.703Z,27.75
2023-12-09T14:30:44.220Z,39.25
2023-12-09T14:33:11.601Z,42.00
2023-12-09T14:35:38.776Z,40.25
2023-12-09T14:38:07.286Z,41.25
2023-12-09T14:40:34.756Z,44.75
2023-12-09T14:43:09.917Z,47.75
2023-12-09T14:45:38.725Z,47.75
2023-12-09T14:48:08.274Z,44.25
2023-12-09T14:50:36.360Z,44.50
2023-12-09T14:53:04.411Z,42.00
2023-12-09T14:55:31.715Z,39.25
2023-12-09T14:58:00.271Z,53.50
2023-12-09T15:00:28.634Z,42.00
2023-12-09T15:02:56.702Z,47.00
2023-12-09T15:05:24.109Z,55.33
2023-12-09T15:07:51.468Z,46.50
2023-12-09T15:10:19.014Z,57.25
2023-12-09T15:12:48.936Z,63.67
2023-12-09T15:15:17.974Z,44.00
2023-12-09T15:17:45.558Z,56.50
2023-12-09T15:20:12.891Z,51.75
2023-12-09T15:22:40.550Z,51.75
2023-12-09T15:25:09.676Z,44.00
2023-12-09T15:27:37.694Z,62.67
2023-12-09T15:30:08.074Z,55.00
2023-12-09T15:32:36.242Z,33.25
2023-12-09T15:35:03.464Z,45.00
2023-12-09T15:37:30.628Z,41.75
2023-12-09T15:39:58.115Z,46.00
2023-12-09T15:42:28.669Z,40.50
2023-12-09T15:44:55.937Z,45.50
2023-12-09T15:47:23.363Z,48.25
2023-12-09T15:49:50.516Z,48.50
2023-12-09T15:52:17.667Z,48.00
2023-12-09T15:54:44.755Z,48.25
2023-12-09T15:57:12.200Z,50.00
2023-12-09T15:59:39.314Z,45.00
2023-12-09T16:02:06.607Z,45.50
2023-12-09T16:04:34.203Z,45.75
2023-12-09T16:07:01.420Z,46.00
2023-12-09T16:09:28.805Z,45.00
2023-12-09T16:11:56.490Z,45.00
2023-12-09T16:14:25.437Z,41.75
2023-12-09T16:16:52.608Z,40.75
2023-12-09T16:19:20.088Z,34.50
2023-12-09T16:21:47.844Z,38.50
2023-12-09T16:24:15.129Z,40.00
2023-12-09T16:26:44.634Z,43.75
2023-12-09T16:29:11.874Z,43.75
2023-12-09T16:31:39.934Z,39.50
2023-12-09T16:34:07.275Z,43.00
2023-12-09T16:36:34.885Z,45.00
2023-12-09T16:39:02.468Z,46.00
2023-12-09T16:41:29.906Z,44.50
2023-12-09T16:43:57.229Z,46.00
2023-12-09T16:46:25.352Z,46.25
2023-12-09T16:48:53.509Z,46.00
2023-12-09T16:51:21.373Z,47.25
2023-12-09T16:53:48.814Z,48.25
2023-12-09T16:56:16.422Z,47.25
2023-12-09T16:58:43.920Z,47.25
2023-12-09T17:01:12.046Z,46.50
2023-12-09T17:03:39.609Z,46.00
2023-12-09T17:06:07.392Z,44.50
2023-12-09T17:08:35.629Z,43.75
2023-12-09T17:11:03.340Z,41.50
2023-12-09T17:13:30.924Z,40.25
2023-12-09T17:15:58.914Z,41.00
2023-12-09T17:18:28.739Z,45.00
2023-12-09T17:20:58.633Z,37.25
2023-12-09T17:23:25.789Z,52.00
2023-12-09T17:25:53.284Z,41.00
2023-12-09T17:28:20.789Z,41.00
2023-12-09T17:30:48.375Z,45.00
2023-12-09T17:33:15.667Z,41.25
2023-12-09T17:35:43.171Z,40.75
2023-12-09T17:38:10.734Z,43.00
2023-12-09T17:40:37.869Z,39.00
2023-12-09T17:43:04.995Z,38.00
2023-12-09T17:45:32.174Z,42.00
2023-12-09T17:47:59.595Z,38.75
2023-12-09T17:50:27.169Z,38.75
2023-12-09T17:52:54.368Z,38.50
2023-12-09T17:55:21.476Z,35.00
2023-12-09T17:57:49.622Z,35.25
2023-12-09T18:00:16.919Z,41.50
2023-12-09T18:02:44.410Z,38.50
2023-12-09T18:05:11.848Z,33.75
2023-12-09T18:07:39.204Z,35.25
2023-12-09T18:10:08.119Z,35.25
2023-12-09T18:12:36.137Z,33.75
2023-12-09T18:15:03.878Z,35.75
2023-12-09T18:17:31.607Z,34.25
2023-12-09T18:19:59.061Z,34.00
2023-12-09T18:22:26.541Z,33.25
2023-12-09T18:24:54.005Z,32.50
2023-12-09T18:27:21.306Z,34.25
2023-12-09T18:29:48.802Z,35.75
2023-12-09T18:32:17.009Z,40.75
2023-12-09T18:34:45.011Z,36.25
2023-12-09T18:37:13.552Z,38.75
2023-12-09T18:39:40.709Z,39.00
2023-12-09T18:42:07.951Z,38.50
2023-12-09T18:44:35.327Z,38.25
2023-12-09T18:47:02.806Z,37.75
2023-12-09T18:49:30.536Z,37.00
2023-12-09T18:51:58.304Z,35.25
2023-12-09T18:54:25.886Z,34.75
2023-12-09T18:56:53.474Z,38.75
2023-12-09T18:59:20.964Z,37.00
2023-12-09T19:01:51.497Z,36.00
2023-12-09T19:04:22.415Z,39.00
2023-12-09T19:06:56.859Z,38.00
2023-12-09T19:09:27.094Z,35.00
2023-12-09T19:11:54.505Z,40.75
2023-12-09T19:14:21.706Z,39.00
2023-12-09T19:16:49.961Z,35.25
2023-12-09T19:19:18.833Z,38.75
2023-12-09T19:21:47.801Z,38.00
2023-12-09T19:24:15.016Z,39.50
2023-12-09T19:26:42.566Z,35.75
2023-12-09T19:29:09.915Z,36.50
2023-12-09T19:31:37.337Z,0.00
2023-12-09T19:34:04.558Z,33.25
2023-12-09T19:36:31.726Z,37.25
2023-12-09T19:38:58.795Z,33.25
2023-12-09T19:41:26.042Z,35.50
2023-12-09T19:43:53.458Z,30.50
2023-12-09T19:46:20.758Z,36.50
2023-12-09T19:48:48.204Z,41.25
2023-12-09T19:51:15.426Z,40.75
2023-12-09T19:53:42.614Z,34.25
2023-12-09T19:56:10.265Z,44.00
2023-12-09T19:58:37.783Z,40.25
2023-12-09T20:01:05.336Z,38.50
2023-12-09T20:03:32.909Z,39.00
2023-12-09T20:06:01.557Z,43.75
2023-12-09T20:08:28.665Z,41.50
2023-12-09T20:10:56.080Z,40.00
2023-12-09T20:13:23.242Z,39.50
2023-12-09T20:15:50.714Z,39.50
2023-12-09T20:18:18.252Z,44.50
2023-12-09T20:20:45.812Z,39.00
2023-12-09T20:23:13.202Z,42.75
2023-12-09T20:25:40.203Z,40.25
2023-12-09T20:28:07.956Z,46.25
2023-12-09T20:30:35.666Z,47.75
2023-12-09T20:33:03.144Z,45.00
2023-12-09T20:35:30.631Z,48.50
2023-12-09T20:37:57.851Z,38.25
2023-12-09T20:40:25.236Z,42.50
2023-12-09T20:42:53.950Z,46.25
2023-12-09T20:45:22.025Z,45.50
2023-12-09T20:47:49.293Z,45.00
2023-12-09T20:50:16.593Z,46.00
2023-12-09T20:52:43.719Z,47.75
2023-12-09T20:55:10.803Z,43.50
2023-12-09T20:57:39.021Z,38.25
2023-12-09T21:00:08.245Z,45.75
2023-12-09T21:02:36.060Z,42.50
2023-12-09T21:05:04.866Z,46.00
2023-12-09T21:07:33.299Z,41.75
2023-12-09T21:10:01.418Z,40.00
2023-12-09T21:12:29.132Z,48.75
2023-12-09T21:14:56.973Z,46.00
2023-12-09T21:17:24.579Z,42.00
2023-12-09T21:19:51.835Z,37.50
2023-12-09T21:22:19.195Z,38.50
2023-12-09T21:24:46.358Z,39.00
2023-12-09T21:27:14.258Z,42.75
2023-12-09T21:29:41.490Z,42.00
2023-12-09T21:32:10.175Z,44.25
2023-12-09T21:34:37.781Z,43.25
2023-12-09T21:37:06.241Z,40.75
2023-12-09T21:39:33.694Z,41.25
2023-12-09T21:42:00.945Z,42.00
2023-12-09T21:44:28.481Z,42.25
2023-12-09T21:46:55.705Z,45.00
2023-12-09T21:49:23.240Z,47.25
2023-12-09T21:51:50.758Z,41.75
2023-12-09T21:54:17.959Z,43.75
2023-12-09T21:56:45.485Z,47.50
2023-12-09T21:59:12.690Z,46.00
2023-12-09T22:01:40.613Z,45.50
2023-12-09T22:04:07.901Z,51.00
2023-12-09T22:06:35.185Z,47.00
2023-12-09T22:09:02.534Z,48.75
2023-12-09T22:11:31.138Z,42.00
2023-12-09T22:13:58.324Z,47.75
2023-12-09T22:16:25.419Z,45.00
2023-12-09T22:18:52.815Z,51.75
2023-12-09T22:21:21.405Z,46.50
2023-12-09T22:23:48.808Z,43.25
2023-12-09T22:26:16.025Z,45.50
2023-12-09T22:28:43.738Z,46.00
2023-12-09T22:31:11.156Z,48.50
2023-12-09T22:33:38.592Z,50.33
2023-12-09T22:36:06.105Z,51.67
2023-12-09T22:38:33.271Z,43.25
2023-12-09T22:41:00.523Z,41.00
2023-12-09T22:43:27.624Z,46.50
2023-12-09T22:45:54.712Z,45.00
2023-12-09T22:48:22.097Z,48.25
2023-12-09T22:50:50.043Z,45.50
2023-12-09T22:53:18.074Z,41.50
2023-12-09T22:55:45.138Z,43.75
2023-12-09T22:58:12.242Z,40.75
2023-12-09T23:00:39.381Z,41.75
2023-12-09T23:03:06.752Z,41.25
2023-12-09T23:05:34.091Z,38.25
2023-12-09T23:08:01.240Z,36.50
2023-12-09T23:10:28.456Z,40.75
2023-12-09T23:12:55.786Z,40.75
2023-12-09T23:15:23.050Z,43.00
2023-12-09T23:17:50.369Z,31.50
2023-12-09T23:20:19.203Z,41.25
2023-12-09T23:22:46.485Z,42.25
2023-12-09T23:25:13.860Z,39.75
2023-12-09T23:27:41.221Z,41.25
2023-12-09T23:30:08.740Z,41.50
2023-12-09T23:32:36.236Z,36.25
2023-12-09T23:35:03.387Z,41.50
2023-12-09T23:37:30.773Z,39.00
2023-12-09T23:39:57.843Z,39.25
2023-12-09T23:42:24.988Z,42.50
2023-12-09T23:44:52.180Z,43.75
2023-12-09T23:47:19.278Z,41.75
2023-12-09T23:49:46.444Z,41.75
2023-12-09T23:52:13.592Z,39.25
2023-12-09T23:54:41.118Z,36.00
2023-12-09T23:57:08.859Z,38.00
2023-12-09T23:59:35.972Z,43.50
